Cloverdale, Tennessee
Current Conditions -  °F | °C
As of 1:50 PM on Sunday 23 Nov 2014 (Local Time) from KNQA Reporting Station
Light Rain Light Rain  
Wind Chill: 59°   Ceiling: 700
Heat Index: 59°   Visibility: 3mi
Dew Point: 59°   Wind: 5mph
Humidity: 100%   Direction: 140°SE
Pressure: 29.37"   Gusts: NA
Location:  35.3343°N, 89.9316°W
Report Text: KNQA 231950Z 14004KT 3SM -RA BR BKN007 OVC013 15/15 A2937
Loading
Personal Weather Stations






























Interactive Weather Map New forecast layout! Learn more

10-Day Weather Forecast

Advertisements
Track Severe Weather on mobile